createdAt,value
2023-12-28T00:01:12.295Z,9.63
2023-12-28T00:04:14.712Z,8.80
2023-12-28T00:07:16.952Z,9.30
2023-12-28T00:10:20.369Z,9.65
2023-12-28T00:13:22.595Z,9.00
2023-12-28T00:16:24.787Z,9.43
2023-12-28T00:19:27.464Z,9.73
2023-12-28T00:22:29.843Z,9.00
2023-12-28T00:25:32.106Z,9.23
2023-12-28T00:28:34.287Z,9.38
2023-12-28T00:31:36.606Z,8.67
2023-12-28T00:34:40.913Z,8.75
2023-12-28T00:37:44.545Z,9.07
2023-12-28T00:40:47.433Z,8.95
2023-12-28T00:43:49.587Z,8.05
2023-12-28T00:46:51.809Z,9.07
2023-12-28T00:49:54.227Z,8.85
2023-12-28T00:52:56.573Z,8.10
2023-12-28T00:55:58.800Z,8.60
2023-12-28T00:59:03.131Z,8.13
2023-12-28T01:02:05.378Z,8.67
2023-12-28T01:05:08.498Z,8.65
2023-12-28T01:08:10.779Z,8.18
2023-12-28T01:11:13.564Z,8.82
2023-12-28T01:14:16.826Z,8.10
2023-12-28T01:17:20.460Z,7.72
2023-12-28T01:20:22.685Z,8.82
2023-12-28T01:23:25.006Z,7.67
2023-12-28T01:26:28.972Z,8.98
2023-12-28T01:29:33.942Z,7.72
2023-12-28T01:32:36.200Z,8.03
2023-12-28T01:35:38.461Z,8.18
2023-12-28T01:38:40.683Z,8.23
2023-12-28T01:41:45.344Z,7.20
2023-12-28T01:44:47.924Z,7.90
2023-12-28T01:47:51.102Z,8.15
2023-12-28T01:50:53.456Z,7.95
2023-12-28T01:53:55.926Z,8.03
2023-12-28T01:56:58.821Z,8.38
2023-12-28T02:00:02.722Z,7.32
2023-12-28T02:03:15.344Z,7.70
2023-12-28T02:06:18.054Z,8.35
2023-12-28T02:09:20.441Z,8.07
2023-12-28T02:12:22.736Z,8.20
2023-12-28T02:15:25.155Z,8.50
2023-12-28T02:18:33.334Z,8.05
2023-12-28T02:21:35.723Z,8.45
2023-12-28T02:25:13.104Z,8.27
2023-12-28T02:28:16.082Z,8.13
2023-12-28T02:31:40.543Z,8.10
2023-12-28T02:34:44.204Z,8.20
2023-12-28T02:37:49.252Z,8.57
2023-12-28T02:40:52.325Z,8.48
2023-12-28T02:43:54.567Z,8.68
2023-12-28T02:46:56.805Z,8.35
2023-12-28T02:50:00.503Z,8.20
2023-12-28T02:53:03.249Z,8.13
2023-12-28T02:56:05.886Z,8.00
2023-12-28T02:59:08.171Z,8.35
2023-12-28T03:02:10.363Z,8.07
2023-12-28T03:05:12.691Z,7.93
2023-12-28T03:08:15.127Z,7.63
2023-12-28T03:11:17.441Z,7.80
2023-12-28T03:14:19.741Z,7.25
2023-12-28T03:17:22.187Z,7.20
2023-12-28T03:20:24.448Z,6.93
2023-12-28T03:23:26.733Z,7.30
2023-12-28T03:26:29.012Z,7.17
2023-12-28T03:29:32.110Z,6.88
2023-12-28T03:32:34.455Z,7.25
2023-12-28T03:35:36.712Z,7.20
2023-12-28T03:38:39.847Z,6.90
2023-12-28T03:41:42.091Z,7.40
2023-12-28T03:44:44.422Z,7.80
2023-12-28T03:47:46.778Z,8.55
2023-12-28T03:50:49.212Z,7.70
2023-12-28T03:53:51.472Z,8.30
2023-12-28T03:56:55.290Z,8.03
2023-12-28T03:59:58.021Z,8.10
2023-12-28T04:03:01.151Z,8.02
2023-12-28T04:06:03.535Z,8.63
2023-12-28T04:09:05.835Z,8.30
2023-12-28T04:12:08.575Z,8.07
2023-12-28T04:15:11.003Z,8.38
2023-12-28T04:18:13.511Z,8.10
2023-12-28T04:21:15.986Z,8.23
2023-12-28T04:24:18.325Z,8.27
2023-12-28T04:27:20.662Z,8.13
2023-12-28T04:30:22.957Z,8.32
2023-12-28T04:33:25.299Z,8.30
2023-12-28T04:36:27.715Z,8.37
2023-12-28T04:39:30.268Z,8.18
2023-12-28T04:42:32.782Z,8.10
2023-12-28T04:45:35.217Z,8.30
2023-12-28T04:48:37.831Z,7.82
2023-12-28T04:51:45.478Z,7.82
2023-12-28T04:54:47.917Z,7.40
2023-12-28T04:57:50.399Z,6.80
2023-12-28T05:00:54.352Z,7.22
2023-12-28T05:03:56.677Z,7.45
2023-12-28T05:06:59.026Z,7.47
2023-12-28T05:10:01.378Z,7.22
2023-12-28T05:13:03.807Z,7.22
2023-12-28T05:16:07.159Z,7.75
2023-12-28T05:19:10.560Z,6.88
2023-12-28T05:22:13.639Z,6.90
2023-12-28T05:25:15.981Z,8.05
2023-12-28T05:28:18.252Z,6.90
2023-12-28T05:31:20.652Z,7.10
2023-12-28T05:34:23.092Z,6.47
2023-12-28T05:37:25.355Z,5.97
2023-12-28T05:40:27.560Z,5.70
2023-12-28T05:43:29.733Z,6.00
2023-12-28T05:46:31.962Z,6.25
2023-12-28T05:49:34.415Z,5.43
2023-12-28T05:52:36.805Z,5.82
2023-12-28T05:55:39.042Z,6.28
2023-12-28T05:58:41.603Z,6.27
2023-12-28T06:01:44.890Z,6.20
2023-12-28T06:04:47.384Z,5.60
2023-12-28T06:07:49.693Z,6.60
2023-12-28T06:10:51.940Z,6.45
2023-12-28T06:13:54.249Z,6.68
2023-12-28T06:16:56.741Z,9.65
2023-12-28T06:19:59.204Z,6.97
2023-12-28T06:23:01.577Z,7.18
2023-12-28T06:26:07.880Z,8.00
2023-12-28T06:29:10.660Z,7.43
2023-12-28T06:32:13.031Z,6.80
2023-12-28T06:35:15.352Z,8.05
2023-12-28T06:38:17.568Z,7.53
2023-12-28T06:41:19.773Z,8.18
2023-12-28T06:44:21.984Z,8.00
2023-12-28T06:47:24.283Z,8.70
2023-12-28T06:50:26.491Z,9.30
2023-12-28T06:53:28.883Z,8.73
2023-12-28T06:56:31.128Z,9.13
2023-12-28T06:59:33.332Z,8.23
2023-12-28T07:02:35.555Z,8.95
2023-12-28T07:05:37.817Z,8.90
2023-12-28T07:08:40.032Z,7.73
2023-12-28T07:11:42.210Z,9.00
2023-12-28T07:14:44.526Z,9.07
2023-12-28T07:17:46.886Z,9.18
2023-12-28T07:20:49.809Z,8.88
2023-12-28T07:23:52.055Z,8.93
2023-12-28T07:26:54.395Z,9.18
2023-12-28T07:29:56.630Z,9.03
2023-12-28T07:32:59.017Z,9.23
2023-12-28T07:36:03.734Z,9.00
2023-12-28T07:39:05.929Z,10.57
2023-12-28T07:42:08.269Z,9.32
2023-12-28T07:45:10.548Z,9.55
2023-12-28T07:48:12.971Z,10.15
2023-12-28T07:51:15.233Z,10.63
2023-12-28T07:54:17.622Z,10.45
2023-12-28T07:57:19.942Z,11.00
2023-12-28T08:00:22.308Z,11.13
2023-12-28T08:03:24.636Z,10.60
2023-12-28T08:06:27.056Z,9.18
2023-12-28T08:09:29.354Z,9.77
2023-12-28T08:12:31.556Z,9.65
2023-12-28T08:15:34.773Z,9.85
2023-12-28T08:18:37.164Z,10.18
2023-12-28T08:21:39.456Z,9.43
2023-12-28T08:24:41.727Z,9.20
2023-12-28T08:27:44.018Z,9.30
2023-12-28T08:30:46.392Z,8.40
2023-12-28T08:33:48.764Z,9.55
2023-12-28T08:36:51.072Z,9.60
2023-12-28T08:39:54.479Z,9.50
2023-12-28T08:42:56.853Z,8.95
2023-12-28T08:45:59.265Z,8.80
2023-12-28T08:49:01.589Z,8.73
2023-12-28T08:52:04.227Z,8.38
2023-12-28T08:55:07.139Z,8.55
2023-12-28T08:58:09.478Z,8.70
2023-12-28T09:01:28.368Z,9.03
2023-12-28T09:04:30.678Z,9.10
2023-12-28T09:07:33.096Z,8.80
2023-12-28T09:10:35.560Z,9.93
2023-12-28T09:13:37.800Z,9.30
2023-12-28T09:16:41.894Z,8.48
2023-12-28T09:19:44.374Z,8.68
2023-12-28T09:22:47.172Z,8.23
2023-12-28T09:25:50.376Z,8.80
2023-12-28T09:28:52.659Z,9.02
2023-12-28T09:31:55.106Z,8.10
2023-12-28T09:34:57.403Z,9.02
2023-12-28T09:37:59.850Z,8.88
2023-12-28T09:41:13.573Z,8.63
2023-12-28T09:44:16.471Z,8.32
2023-12-28T09:47:18.775Z,9.27
2023-12-28T09:50:21.425Z,8.23
2023-12-28T09:53:24.656Z,9.40
2023-12-28T09:56:29.890Z,9.15
2023-12-28T09:59:33.798Z,9.32
2023-12-28T10:02:37.509Z,8.70
2023-12-28T10:05:42.101Z,8.98
2023-12-28T10:08:49.196Z,8.32
2023-12-28T10:11:51.584Z,8.43
2023-12-28T10:14:54.910Z,8.80
2023-12-28T10:17:57.275Z,9.25
2023-12-28T10:20:59.529Z,9.40
2023-12-28T10:24:03.244Z,8.27
2023-12-28T10:27:05.506Z,8.25
2023-12-28T10:30:08.633Z,9.02
2023-12-28T10:33:11.262Z,8.33
2023-12-28T10:36:16.751Z,8.18
2023-12-28T10:39:21.447Z,8.88
2023-12-28T10:42:32.053Z,9.10
2023-12-28T10:45:36.030Z,9.52
2023-12-28T10:48:43.787Z,8.60
2023-12-28T10:51:48.955Z,8.93
2023-12-28T10:55:04.421Z,9.45
2023-12-28T10:58:14.881Z,9.73
2023-12-28T11:01:24.258Z,8.77
2023-12-28T11:04:40.071Z,9.13
2023-12-28T11:07:42.461Z,9.32
2023-12-28T11:10:44.937Z,7.70
2023-12-28T11:13:47.691Z,7.73
2023-12-28T11:16:50.000Z,9.43
2023-12-28T11:19:54.330Z,9.18
2023-12-28T11:22:57.241Z,8.50
2023-12-28T11:25:59.658Z,9.38
2023-12-28T11:29:05.320Z,9.00
2023-12-28T11:32:09.346Z,8.82
2023-12-28T11:35:15.716Z,7.93
2023-12-28T11:38:18.539Z,9.20
2023-12-28T11:41:21.942Z,9.00
2023-12-28T11:44:27.454Z,8.80
2023-12-28T11:47:29.854Z,9.25
2023-12-28T11:50:33.052Z,9.27
2023-12-28T11:53:36.592Z,9.43
2023-12-28T11:56:38.876Z,8.07
2023-12-28T11:59:41.357Z,8.30
2023-12-28T12:02:46.725Z,8.40
2023-12-28T12:05:49.198Z,9.03
2023-12-28T12:08:51.456Z,8.93
2023-12-28T12:11:54.958Z,8.57
2023-12-28T12:14:57.667Z,8.50
2023-12-28T12:18:00.504Z,8.63
2023-12-28T12:21:04.257Z,8.50
2023-12-28T12:24:06.839Z,9.13
2023-12-28T12:27:09.150Z,8.60
2023-12-28T12:30:11.716Z,8.30
2023-12-28T12:33:14.245Z,8.07
2023-12-28T12:36:16.974Z,8.87
2023-12-28T12:39:19.263Z,8.40
2023-12-28T12:42:21.602Z,7.88
2023-12-28T12:45:26.932Z,8.10
2023-12-28T12:48:29.451Z,7.53
2023-12-28T12:51:32.112Z,7.57
2023-12-28T12:54:34.482Z,7.57
2023-12-28T12:57:36.924Z,7.47
2023-12-28T13:00:39.283Z,8.00
2023-12-28T13:03:41.784Z,8.13
2023-12-28T13:06:44.348Z,7.27
2023-12-28T13:09:46.678Z,8.27
2023-12-28T13:12:49.031Z,6.88
2023-12-28T13:15:51.377Z,8.70
2023-12-28T13:18:54.377Z,7.57
2023-12-28T13:21:56.920Z,7.00
2023-12-28T13:24:59.248Z,7.47
2023-12-28T13:28:01.855Z,8.43
2023-12-28T13:31:04.481Z,8.00
2023-12-28T13:34:06.884Z,7.72
2023-12-28T13:37:09.386Z,6.93
2023-12-28T13:40:11.974Z,7.80
2023-12-28T13:43:14.282Z,8.07
2023-12-28T13:46:16.555Z,7.87
2023-12-28T13:49:19.302Z,7.43
2023-12-28T13:52:21.853Z,7.40
2023-12-28T13:55:29.068Z,7.45
2023-12-28T13:58:31.366Z,7.43
2023-12-28T14:01:33.687Z,6.63
2023-12-28T14:04:36.794Z,7.28
2023-12-28T14:07:39.076Z,7.40
2023-12-28T14:10:41.331Z,7.93
2023-12-28T14:13:43.644Z,7.20
2023-12-28T14:16:47.249Z,7.87
2023-12-28T14:19:49.737Z,7.97
2023-12-28T14:22:52.389Z,8.55
2023-12-28T14:25:55.029Z,8.77
2023-12-28T14:29:00.166Z,8.45
2023-12-28T14:32:02.742Z,8.32
2023-12-28T14:35:08.887Z,8.52
2023-12-28T14:38:11.231Z,8.70
2023-12-28T14:41:13.581Z,8.20
2023-12-28T14:44:15.808Z,8.20
2023-12-28T14:47:18.068Z,8.60
2023-12-28T14:50:20.401Z,8.90
2023-12-28T14:53:24.605Z,8.90
2023-12-28T14:56:30.026Z,9.20
2023-12-28T14:59:35.793Z,9.20
2023-12-28T15:02:38.218Z,9.07
2023-12-28T15:05:40.400Z,8.80
2023-12-28T15:08:42.727Z,8.20
2023-12-28T15:11:48.799Z,8.80
2023-12-28T15:14:52.030Z,8.45
2023-12-28T15:17:54.757Z,8.40
2023-12-28T15:20:57.552Z,8.48
2023-12-28T15:24:00.288Z,8.05
2023-12-28T15:27:03.354Z,9.05
2023-12-28T15:30:07.080Z,8.52
2023-12-28T15:33:09.662Z,7.63
2023-12-28T15:36:12.057Z,8.45
2023-12-28T15:39:14.362Z,8.63
2023-12-28T15:42:16.603Z,8.52
2023-12-28T15:45:18.772Z,8.70
2023-12-28T15:48:21.156Z,8.57
2023-12-28T15:51:24.468Z,9.07
2023-12-28T15:54:29.578Z,10.07
2023-12-28T15:57:32.356Z,11.57
2023-12-28T16:00:34.758Z,11.98
2023-12-28T16:03:37.240Z,11.45
2023-12-28T16:06:39.448Z,12.60
2023-12-28T16:09:42.046Z,12.30
2023-12-28T16:12:44.541Z,12.88
2023-12-28T16:15:47.270Z,12.13
2023-12-28T16:18:50.093Z,12.77
2023-12-28T16:21:52.886Z,12.98
2023-12-28T16:24:55.262Z,12.65
2023-12-28T16:27:59.288Z,14.23
2023-12-28T16:31:03.236Z,16.35
2023-12-28T16:34:09.826Z,14.65
2023-12-28T16:37:13.671Z,16.90
2023-12-28T16:40:16.305Z,16.07
2023-12-28T16:43:18.800Z,20.60
2023-12-28T16:46:21.200Z,15.63
2023-12-28T16:49:23.574Z,15.63
2023-12-28T16:52:25.846Z,15.50
2023-12-28T16:55:28.224Z,16.77
2023-12-28T16:58:30.473Z,16.48
2023-12-28T17:01:34.361Z,16.75
2023-12-28T17:04:37.156Z,17.42
2023-12-28T17:07:39.614Z,18.27
2023-12-28T17:10:42.225Z,18.97
2023-12-28T17:13:47.867Z,17.77
2023-12-28T17:16:51.032Z,16.63
2023-12-28T17:19:53.700Z,17.40
2023-12-28T17:23:10.359Z,16.02
2023-12-28T17:26:29.052Z,16.67
2023-12-28T17:29:31.554Z,16.98
2023-12-28T17:32:37.249Z,16.73
2023-12-28T17:35:40.048Z,16.95
2023-12-28T17:38:43.868Z,16.77
2023-12-28T17:41:47.961Z,17.83
2023-12-28T17:44:54.458Z,16.85
2023-12-28T17:48:10.353Z,16.30
2023-12-28T17:51:13.512Z,16.40
2023-12-28T17:54:16.077Z,16.35
2023-12-28T17:57:18.403Z,15.88
2023-12-28T18:00:23.634Z,16.30
2023-12-28T18:03:26.273Z,16.20
2023-12-28T18:06:28.801Z,15.93
2023-12-28T18:09:31.213Z,16.70
2023-12-28T18:12:33.739Z,19.77
2023-12-28T18:15:36.354Z,17.13
2023-12-28T18:18:38.977Z,17.42
2023-12-28T18:21:43.970Z,19.33
2023-12-28T18:24:46.283Z,19.73
2023-12-28T18:27:48.580Z,21.25
2023-12-28T18:30:51.089Z,20.65
2023-12-28T18:33:53.558Z,19.52
2023-12-28T18:36:57.392Z,19.90
2023-12-28T18:39:59.716Z,20.02
2023-12-28T18:43:02.158Z,20.53
2023-12-28T18:46:04.573Z,22.27
2023-12-28T18:49:09.596Z,23.02
2023-12-28T18:52:11.996Z,22.47
2023-12-28T18:55:14.682Z,22.27
2023-12-28T18:58:17.168Z,20.77
2023-12-28T19:01:19.665Z,23.45
2023-12-28T19:04:22.165Z,23.40
2023-12-28T19:07:25.104Z,24.67
2023-12-28T19:10:27.369Z,24.38
2023-12-28T19:13:29.825Z,22.43
2023-12-28T19:16:31.969Z,24.88
2023-12-28T19:19:34.582Z,23.50
2023-12-28T19:22:37.425Z,23.10
2023-12-28T19:25:39.760Z,22.73
2023-12-28T19:28:42.114Z,23.58
2023-12-28T19:31:44.429Z,22.02
2023-12-28T19:34:47.271Z,21.80
2023-12-28T19:37:51.694Z,26.38
2023-12-28T19:40:54.050Z,23.50
2023-12-28T19:43:57.003Z,21.03
2023-12-28T19:46:59.250Z,23.40
2023-12-28T19:50:01.978Z,22.38
2023-12-28T19:53:06.007Z,23.20
2023-12-28T19:56:08.676Z,22.60
2023-12-28T19:59:11.598Z,22.08
2023-12-28T20:02:14.545Z,23.02
2023-12-28T20:05:18.489Z,21.60
2023-12-28T20:08:20.934Z,22.13
2023-12-28T20:11:23.164Z,21.85
2023-12-28T20:14:25.554Z,20.40
2023-12-28T20:17:27.937Z,22.35
2023-12-28T20:20:30.500Z,21.20
2023-12-28T20:23:33.002Z,21.77
2023-12-28T20:26:35.694Z,21.60
2023-12-28T20:29:38.348Z,21.00
2023-12-28T20:32:41.475Z,22.60
2023-12-28T20:35:43.892Z,21.63
2023-12-28T20:38:46.166Z,22.27
2023-12-28T20:41:48.440Z,22.40
2023-12-28T20:44:50.718Z,20.40
2023-12-28T20:47:53.037Z,21.58
2023-12-28T20:50:55.320Z,21.20
2023-12-28T20:53:57.557Z,22.20
2023-12-28T20:56:59.876Z,21.73
2023-12-28T21:00:02.335Z,21.60
2023-12-28T21:03:04.905Z,21.15
2023-12-28T21:06:07.251Z,21.35
2023-12-28T21:09:09.482Z,21.13
2023-12-28T21:12:13.568Z,21.23
2023-12-28T21:15:15.846Z,21.13
2023-12-28T21:18:27.286Z,22.48
2023-12-28T21:21:33.183Z,21.95
2023-12-28T21:24:38.557Z,22.67
2023-12-28T21:27:40.937Z,22.55
2023-12-28T21:30:43.379Z,21.75
2023-12-28T21:33:45.810Z,21.50
2023-12-28T21:36:49.725Z,20.83
2023-12-28T21:39:52.067Z,21.42
2023-12-28T21:42:57.035Z,20.83
2023-12-28T21:45:59.742Z,20.63
2023-12-28T21:49:02.139Z,22.67
2023-12-28T21:52:04.735Z,20.75
2023-12-28T21:55:07.602Z,21.80
2023-12-28T21:58:12.783Z,20.70
2023-12-28T22:01:15.189Z,19.70
2023-12-28T22:04:17.552Z,21.50
2023-12-28T22:07:19.889Z,21.13
2023-12-28T22:10:22.394Z,20.50
2023-12-28T22:13:24.775Z,21.25
2023-12-28T22:16:27.020Z,21.43
2023-12-28T22:19:29.568Z,21.27
2023-12-28T22:22:31.898Z,20.67
2023-12-28T22:25:34.100Z,21.10
2023-12-28T22:28:36.411Z,21.25
2023-12-28T22:34:41.271Z,24.90
2023-12-28T22:37:43.514Z,24.42
2023-12-28T22:40:45.951Z,26.33
2023-12-28T22:43:48.192Z,25.67
2023-12-28T22:46:50.704Z,24.03
2023-12-28T22:49:53.128Z,25.20
2023-12-28T22:52:55.464Z,26.75
2023-12-28T22:55:57.790Z,25.77
2023-12-28T22:59:00.075Z,26.52
2023-12-28T23:02:02.553Z,26.83
2023-12-28T23:05:05.185Z,29.15
2023-12-28T23:08:07.492Z,28.08
2023-12-28T23:11:10.002Z,26.85
2023-12-28T23:14:12.316Z,25.92
2023-12-28T23:17:14.554Z,26.57
2023-12-28T23:20:16.855Z,26.02
2023-12-28T23:23:19.050Z,25.85
2023-12-28T23:26:22.311Z,24.43
2023-12-28T23:29:24.705Z,25.50
2023-12-28T23:32:27.095Z,25.58
2023-12-28T23:35:29.361Z,25.95
2023-12-28T23:38:31.563Z,24.98
2023-12-28T23:41:33.802Z,25.85
2023-12-28T23:44:38.687Z,25.73
2023-12-28T23:47:40.906Z,24.20
2023-12-28T23:50:43.418Z,25.05
2023-12-28T23:53:46.630Z,25.25
2023-12-28T23:56:48.877Z,25.13
2023-12-28T23:59:51.081Z,23.98
